Time;durP1;ratioP1;P1;durP2;ratioP2;P2;SDS_P1;SDS_P2;PMS_P1;PMS_P2;Temp;Humidity;BMP_temperature;BMP_pressure;BME280_temperature;BME280_humidity;BME280_pressure;Samples;Min_cycle;Max_cycle;Signal;HPM_P1;HPM_P2
2023/01/01 00:00:10;;;;;;;0.50;0.50;;;;;;;8.19;100.00;100831.69;6017673;23;20014;-93
2023/01/01 00:02:36;;;;;;;1.25;1.15;;;;;;;8.23;100.00;100824.16;6016442;23;20015;-93
2023/01/01 00:05:03;;;;;;;0.45;0.45;;;;;;;8.22;100.00;100822.56;6018386;23;20098;-93
2023/01/01 00:07:29;;;;;;;1.45;1.23;;;;;;;8.28;100.00;100818.22;6016977;23;20015;-92
2023/01/01 00:12:38;;;;;;;0.77;0.75;;;;;;;8.31;100.00;100822.16;6000607;23;20097;-93
2023/01/01 00:15:05;;;;;;;1.50;1.13;;;;;;;8.19;100.00;100809.56;6017700;23;20467;-93
2023/01/01 00:17:30;;;;;;;1.85;1.58;;;;;;;8.29;100.00;100808.75;5994581;23;20021;-92
2023/01/01 00:19:56;;;;;;;0.43;0.40;;;;;;;8.41;100.00;100827.63;6018297;23;20023;-94
2023/01/01 00:22:21;;;;;;;0.32;0.32;;;;;;;8.35;100.00;100811.88;5971052;23;20022;-94
2023/01/01 00:24:47;;;;;;;1.77;1.65;;;;;;;8.36;100.00;100819.78;5994889;23;20113;-94
2023/01/01 00:27:12;;;;;;;0.13;0.13;;;;;;;8.31;100.00;100814.66;6017876;23;20098;-93
2023/01/01 00:29:38;;;;;;;1.67;1.60;;;;;;;8.27;100.00;100811.09;6041407;23;20025;-93
2023/01/01 00:32:04;;;;;;;0.28;0.28;;;;;;;8.15;100.00;100792.22;6040656;23;20011;-93
2023/01/01 00:34:29;;;;;;;0.30;0.30;;;;;;;8.27;100.00;100813.88;6017664;23;20031;-93
2023/01/01 00:36:56;;;;;;;1.13;1.10;;;;;;;7.98;100.00;100782.03;6018234;23;20353;-92
2023/01/01 00:39:21;;;;;;;0.52;0.52;;;;;;;8.18;100.00;100813.50;6018358;23;20015;-94
2023/01/01 00:41:47;;;;;;;1.27;1.17;;;;;;;8.01;100.00;100802.56;5994766;23;20507;-93
2023/01/01 00:44:12;;;;;;;0.45;0.45;;;;;;;8.13;100.00;100819.44;5994827;23;20097;-93
2023/01/01 00:46:38;;;;;;;0.55;0.55;;;;;;;8.20;100.00;100827.72;6040751;23;20344;-93
2023/01/01 00:49:03;;;;;;;0.88;0.88;;;;;;;7.99;100.00;100800.19;6017988;23;20101;-92
2023/01/01 00:51:29;;;;;;;0.20;0.20;;;;;;;7.91;100.00;100787.59;6017201;23;20090;-93
2023/01/01 00:53:54;;;;;;;0.10;0.10;;;;;;;8.09;100.00;100817.91;5994486;23;20354;-94
2023/01/01 00:56:20;;;;;;;0.43;0.43;;;;;;;7.99;100.00;100808.47;6018116;23;20022;-93
2023/01/01 00:58:46;;;;;;;1.60;1.15;;;;;;;8.08;100.00;100817.13;6041078;23;20010;-94
2023/01/01 01:01:11;;;;;;;1.05;0.57;;;;;;;8.06;100.00;100813.16;6040958;23;20011;-93
2023/01/01 01:03:38;;;;;;;0.85;0.85;;;;;;;8.09;100.00;100823.44;5994601;23;20046;-94
2023/01/01 01:06:04;;;;;;;0.82;0.82;;;;;;;8.03;100.00;100828.59;6016972;23;20015;-94
2023/01/01 01:08:31;;;;;;;1.13;1.10;;;;;;;8.01;100.00;100828.19;6041364;23;20046;-94
2023/01/01 01:11:08;;;;;;;0.65;0.65;;;;;;;7.98;100.00;100821.50;6017741;23;20019;-93
2023/01/01 01:13:34;;;;;;;0.80;0.80;;;;;;;7.91;100.00;100838.09;6017718;23;20014;-93
2023/01/01 01:16:01;;;;;;;0.52;0.47;;;;;;;7.87;100.00;100845.59;6041111;23;20003;-93
2023/01/01 01:18:26;;;;;;;0.45;0.45;;;;;;;7.63;100.00;100816.06;6041916;23;20042;-94
2023/01/01 01:20:52;;;;;;;0.55;0.55;;;;;;;7.75;100.00;100839.72;6016962;23;20467;-93
2023/01/01 01:23:19;;;;;;;1.38;1.02;;;;;;;7.67;100.00;100838.16;5993941;23;20014;-94
2023/01/01 01:25:46;;;;;;;0.15;0.15;;;;;;;7.61;100.00;100834.22;6017678;23;20010;-93
2023/01/01 01:28:11;;;;;;;0.90;0.82;;;;;;;7.47;100.00;100830.31;6017620;23;20081;-92
2023/01/01 01:30:38;;;;;;;0.20;0.20;;;;;;;7.60;100.00;100827.13;6040289;23;20439;-93
2023/01/01 01:33:04;;;;;;;0.90;0.90;;;;;;;7.54;100.00;100828.72;6017486;23;20027;-94
2023/01/01 01:35:30;;;;;;;0.15;0.15;;;;;;;7.50;100.00;100815.72;6040209;23;20077;-93
2023/01/01 01:37:55;;;;;;;1.15;0.85;;;;;;;7.40;100.00;100802.69;6017478;23;20026;-94
2023/01/01 01:40:21;;;;;;;0.10;0.10;;;;;;;7.52;100.00;100825.56;6017393;23;20017;-94
2023/01/01 01:42:47;;;;;;;1.52;1.10;;;;;;;7.48;100.00;100809.78;5993680;23;20015;-94
2023/01/01 01:45:14;;;;;;;0.20;0.20;;;;;;;7.54;100.00;100823.97;6017585;23;20015;-93
2023/01/01 01:47:53;;;;;;;0.30;0.30;;;;;;;7.35;100.00;100799.56;6016763;23;20025;-94
2023/01/01 01:50:30;;;;;;;1.75;0.80;;;;;;;7.38;100.00;100805.09;6040860;23;20146;-94
2023/01/01 01:53:12;;;;;;;0.30;0.30;;;;;;;7.33;100.00;100813.75;6040862;23;20456;-93
2023/01/01 01:56:06;;;;;;;0.38;0.38;;;;;;;7.25;100.00;100811.41;6016992;23;20014;-94
2023/01/01 01:58:32;;;;;;;2.15;1.02;;;;;;;7.22;100.00;100812.97;6040666;23;20063;-93
2023/01/01 02:03:42;;;;;;;0.20;0.20;;;;;;;7.24;100.00;100805.09;6082295;23;20483;-93
2023/01/01 02:06:09;;;;;;;0.82;0.63;;;;;;;7.34;100.00;100815.34;6068624;23;20018;-93
2023/01/01 02:08:36;;;;;;;0.32;0.32;;;;;;;7.19;100.00;100799.97;6022574;23;20026;-94
2023/01/01 02:11:02;;;;;;;0.35;0.35;;;;;;;7.21;100.00;100797.59;6022508;23;20017;-93
2023/01/01 02:13:27;;;;;;;0.10;0.10;;;;;;;7.06;100.00;100775.94;6022089;23;20010;-93
2023/01/01 02:15:54;;;;;;;0.47;0.47;;;;;;;7.29;100.00;100810.22;6022172;23;20432;-95
2023/01/01 02:19:06;;;;;;;0.45;0.45;;;;;;;7.28;100.00;100794.81;6023204;23;20021;-94
2023/01/01 02:21:58;;;;;;;1.42;0.95;;;;;;;7.39;100.00;100801.16;6022370;23;20015;-94
2023/01/01 02:24:35;;;;;;;0.93;0.93;;;;;;;7.42;100.00;100799.56;6022286;23;20073;-94
2023/01/01 02:27:07;;;;;;;0.43;0.40;;;;;;;7.41;100.00;100798.75;6021986;23;20026;-94
2023/01/01 02:29:42;;;;;;;0.55;0.40;;;;;;;7.44;100.00;100797.97;6022436;23;20352;-95
2023/01/01 02:32:20;;;;;;;0.50;0.50;;;;;;;7.39;100.00;100781.81;6069284;23;20066;-94
2023/01/01 02:34:51;;;;;;;0.65;0.65;;;;;;;7.35;100.00;100766.44;6069952;23;20075;-94
2023/01/01 02:37:17;;;;;;;0.70;0.63;;;;;;;7.38;100.00;100774.72;6022234;23;20014;-95
2023/01/01 02:39:53;;;;;;;2.25;1.02;;;;;;;7.41;100.00;100789.69;6070702;23;20014;-95
2023/01/01 02:42:19;;;;;;;0.30;0.30;;;;;;;7.41;100.00;100776.69;6046282;23;20026;-94
2023/01/01 02:44:48;;;;;;;0.57;0.57;;;;;;;7.60;100.00;100794.78;6070107;23;20026;-95
2023/01/01 02:47:17;;;;;;;0.43;0.43;;;;;;;7.53;100.00;100797.56;6069553;23;20021;-95
2023/01/01 02:50:07;;;;;;;0.68;0.68;;;;;;;7.56;100.00;100793.22;6046384;23;20021;-94
2023/01/01 02:52:38;;;;;;;1.60;0.98;;;;;;;7.57;100.00;100795.56;6045297;23;20022;-95
2023/01/01 02:55:19;;;;;;;0.80;0.80;;;;;;;7.51;100.00;100780.63;6069918;23;20022;-95
2023/01/01 02:57:54;;;;;;;2.30;1.00;;;;;;;7.57;100.00;100803.06;6046457;23;20113;-94
2023/01/01 03:00:30;;;;;;;0.10;0.10;;;;;;;7.49;100.00;100778.25;6023113;23;20061;-94
2023/01/01 03:03:14;;;;;;;0.95;0.95;;;;;;;7.58;100.00;100796.38;6019164;23;20023;-94
2023/01/01 03:08:59;;;;;;;1.73;0.52;;;;;;;7.56;100.00;100791.25;6040494;23;20023;-93
2023/01/01 03:11:38;;;;;;;0.52;0.52;;;;;;;7.49;100.00;100792.03;6040261;23;20030;-95
2023/01/01 03:14:23;;;;;;;3.00;2.15;;;;;;;7.36;100.00;100768.78;6039834;23;20015;-93
2023/01/01 03:17:14;;;;;;;1.13;0.68;;;;;;;7.41;100.00;100776.69;5993672;23;20030;-94
2023/01/01 03:19:41;;;;;;;0.95;0.73;;;;;;;7.38;100.00;100766.44;6050484;23;20512;-94
2023/01/01 03:22:10;;;;;;;1.33;0.82;;;;;;;7.45;100.00;100782.19;6016063;23;20093;-94
2023/01/01 03:24:50;;;;;;;0.30;0.30;;;;;;;7.49;100.00;100789.28;6017039;23;20011;-95
2023/01/01 03:27:22;;;;;;;0.10;0.10;;;;;;;7.42;100.00;100775.50;6064280;23;20433;-95
2023/01/01 03:29:50;;;;;;;0.20;0.20;;;;;;;7.39;100.00;100762.50;6016665;23;20022;-93
2023/01/01 03:32:20;;;;;;;0.10;0.10;;;;;;;7.55;100.00;100772.31;6040945;23;20034;-94
2023/01/01 03:34:51;;;;;;;1.13;1.05;;;;;;;7.39;100.00;100745.94;6017632;23;20010;-94
2023/01/01 03:37:22;;;;;;;0.52;0.52;;;;;;;7.48;100.00;100760.09;6040897;23;20019;-94
2023/01/01 03:39:51;;;;;;;1.67;1.58;;;;;;;7.46;100.00;100756.16;6039773;23;20010;-95
2023/01/01 03:42:33;;;;;;;0.30;0.30;;;;;;;7.48;100.00;100746.28;6041302;23;20003;-95
2023/01/01 03:45:03;;;;;;;0.38;0.38;;;;;;;7.39;100.00;100745.94;6041413;23;20021;-93
2023/01/01 03:47:30;;;;;;;1.98;0.65;;;;;;;7.43;100.00;100743.16;6016559;23;20030;-95
2023/01/01 03:49:56;;;;;;;0.45;0.45;;;;;;;7.39;100.00;100737.66;6040078;23;20014;-94
2023/01/01 03:52:41;;;;;;;0.20;0.20;;;;;;;7.57;100.00;100767.16;6017101;23;20015;-94
2023/01/01 03:55:10;;;;;;;0.80;0.80;;;;;;;7.55;100.00;100770.34;6040173;23;20578;-94
2023/01/01 03:57:58;;;;;;;0.52;0.52;;;;;;;7.52;100.00;100776.69;6040706;23;20010;-93
2023/01/01 04:00:29;;;;;;;3.30;0.80;;;;;;;7.43;100.00;100768.81;6041271;23;20019;-94
2023/01/01 04:03:18;;;;;;;0.80;0.80;;;;;;;7.35;100.00;100761.72;6016900;23;20019;-94
2023/01/01 04:05:43;;;;;;;0.30;0.30;;;;;;;7.27;100.00;100749.13;6017728;23;20015;-94
2023/01/01 04:08:10;;;;;;;0.65;0.65;;;;;;;7.37;100.00;100773.13;6041180;23;20026;-95
2023/01/01 04:10:40;;;;;;;1.08;0.95;;;;;;;7.33;100.00;100747.53;6016937;23;20007;-95
2023/01/01 04:13:06;;;;;;;0.75;0.75;;;;;;;7.43;100.00;100762.50;6017337;23;20015;-93
2023/01/01 04:15:32;;;;;;;0.03;0.03;;;;;;;7.27;100.00;100746.38;6041294;23;20066;-94
2023/01/01 04:17:58;;;;;;;0.20;0.08;;;;;;;7.34;100.00;100754.63;6015557;23;20026;-95
2023/01/01 04:20:24;;;;;;;0.10;0.10;;;;;;;7.47;100.00;100769.59;6040175;23;20007;-95
2023/01/01 04:22:50;;;;;;;1.23;1.13;;;;;;;7.40;100.00;100752.25;6016269;23;20030;-95
2023/01/01 04:25:18;;;;;;;0.63;0.45;;;;;;;7.41;100.00;100743.56;6062636;23;20426;-95
2023/01/01 04:27:43;;;;;;;2.47;1.45;;;;;;;7.34;100.00;100742.78;6040381;23;20011;-93
2023/01/01 04:30:11;;;;;;;1.50;1.40;;;;;;;7.41;100.00;100757.34;6016655;23;20025;-94
2023/01/01 04:32:37;;;;;;;1.27;1.17;;;;;;;7.43;100.00;100756.97;6040816;23;20389;-95
2023/01/01 04:35:04;;;;;;;0.63;0.63;;;;;;;7.45;100.00;100749.06;5994884;23;20014;-95
2023/01/01 04:37:29;;;;;;;0.63;0.63;;;;;;;7.47;100.00;100741.19;6041584;23;20062;-94
2023/01/01 04:39:55;;;;;;;3.28;1.42;;;;;;;7.56;100.00;100743.53;6042069;23;20010;-94
2023/01/01 04:42:21;;;;;;;0.30;0.30;;;;;;;7.61;100.00;100748.63;6042549;23;20082;-94
2023/01/01 04:44:55;;;;;;;1.10;0.55;;;;;;;7.52;100.00;100726.19;6066516;23;20015;-95
2023/01/01 04:47:21;;;;;;;0.55;0.55;;;;;;;7.55;100.00;100728.16;6019974;23;20038;-93
2023/01/01 04:49:46;;;;;;;12.82;1.75;;;;;;;7.69;100.00;100750.16;6042598;23;20003;-94
2023/01/01 04:52:12;;;;;;;2.83;1.85;;;;;;;7.75;100.00;100762.38;6041710;23;20047;-94
2023/01/01 04:54:37;;;;;;;1.35;1.02;;;;;;;7.51;100.00;100725.41;6018689;23;20021;-95
2023/01/01 04:57:03;;;;;;;6.22;1.02;;;;;;;7.46;100.00;100723.84;6042028;23;20043;-94
2023/01/01 04:59:29;;;;;;;3.78;2.13;;;;;;;7.65;100.00;100757.69;6018055;23;20355;-94
2023/01/01 05:01:56;;;;;;;1.80;1.15;;;;;;;7.60;100.00;100752.59;6016880;23;20015;-94
2023/01/01 05:04:21;;;;;;;1.35;1.02;;;;;;;7.62;100.00;100764.00;6065915;23;20048;-94
2023/01/01 05:06:47;;;;;;;0.10;0.10;;;;;;;7.40;100.00;100733.69;6042402;23;20353;-94
2023/01/01 05:09:12;;;;;;;0.32;0.32;;;;;;;7.41;100.00;100740.00;6041777;23;20019;-95
2023/01/01 05:11:38;;;;;;;0.43;0.43;;;;;;;7.33;100.00;100736.47;6041636;23;20018;-94
2023/01/01 05:14:07;;;;;;;3.75;1.40;;;;;;;7.36;100.00;100745.97;6017527;23;20015;-94
2023/01/01 05:16:37;;;;;;;2.40;1.48;;;;;;;7.26;100.00;100735.72;6018133;23;20078;-94
2023/01/01 05:19:04;;;;;;;2.15;0.65;;;;;;;7.29;100.00;100734.91;6041759;23;20047;-94
2023/01/01 05:21:32;;;;;;;1.05;1.02;;;;;;;7.21;100.00;100728.63;6041711;23;20464;-94
2023/01/01 05:24:00;;;;;;;2.47;1.38;;;;;;;7.38;100.00;100757.38;6065410;23;20046;-94
2023/01/01 05:26:28;;;;;;;1.38;1.08;;;;;;;7.44;100.00;100775.88;6039434;23;20007;-94
2023/01/01 05:28:55;;;;;;;0.55;0.55;;;;;;;7.26;100.00;100741.22;6040997;23;20021;-94
2023/01/01 05:31:22;;;;;;;0.30;0.30;;;;;;;7.43;100.00;100757.75;6017544;23;20022;-93
2023/01/01 05:33:48;;;;;;;0.70;0.70;;;;;;;7.58;100.00;100771.50;6042150;23;20094;-94
2023/01/01 05:36:19;;;;;;;0.95;0.95;;;;;;;7.58;100.00;100775.06;6017849;23;20015;-94
2023/01/01 05:38:45;;;;;;;0.10;0.10;;;;;;;7.39;100.00;100756.97;6017337;23;20408;-96
2023/01/01 05:41:12;;;;;;;0.00;0.00;;;;;;;7.55;100.00;100775.06;6040435;23;20050;-94
2023/01/01 05:43:38;;;;;;;0.57;0.38;;;;;;;7.44;100.00;100759.31;6040937;23;20023;-93
2023/01/01 05:46:07;;;;;;;0.00;0.00;;;;;;;7.56;100.00;100796.00;6040422;23;20093;-95
2023/01/01 05:48:35;;;;;;;0.22;0.22;;;;;;;7.56;100.00;100787.69;6017491;23;20343;-95
2023/01/01 05:51:08;;;;;;;1.20;1.15;;;;;;;7.54;100.00;100790.84;6041218;23;20019;-94
2023/01/01 05:53:34;;;;;;;0.53;0.53;;;;;;;7.49;100.00;100778.25;6017278;23;20018;-95
2023/01/01 05:56:00;;;;;;;0.32;0.32;;;;;;;7.31;100.00;100762.91;6065082;23;20300;-95
2023/01/01 05:58:27;;;;;;;0.40;0.40;;;;;;;7.45;100.00;100782.19;6040753;23;20019;-96
2023/01/01 06:00:53;;;;;;;1.02;1.00;;;;;;;7.60;100.00;100794.78;6063776;23;20408;-95
2023/01/01 06:03:18;;;;;;;1.58;1.48;;;;;;;7.56;100.00;100784.94;6040519;23;20120;-93
2023/01/01 06:05:44;;;;;;;0.40;0.40;;;;;;;7.57;100.00;100772.69;6041325;23;20473;-95
2023/01/01 06:08:11;;;;;;;0.00;0.00;;;;;;;7.47;100.00;100769.59;5993575;23;20018;-95
2023/01/01 06:10:36;;;;;;;0.10;0.10;;;;;;;7.65;100.00;100796.34;6017647;23;20130;-94
2023/01/01 06:13:02;;;;;;;0.15;0.15;;;;;;;7.56;100.00;100777.44;6017404;23;20015;-95
2023/01/01 06:15:28;;;;;;;0.30;0.30;;;;;;;7.65;100.00;100793.56;6041328;23;20409;-95
2023/01/01 06:17:53;;;;;;;0.17;0.17;;;;;;;7.62;100.00;100794.38;6040703;23;20018;-94
2023/01/01 06:20:19;;;;;;;0.25;0.25;;;;;;;7.69;100.00;100802.63;6017411;23;20015;-94
2023/01/01 06:22:45;;;;;;;0.15;0.15;;;;;;;7.50;100.00;100784.56;6017754;23;20065;-95
2023/01/01 06:25:11;;;;;;;0.80;0.80;;;;;;;7.54;100.00;100790.06;6017447;23;20046;-94
2023/01/01 06:27:37;;;;;;;0.75;0.75;;;;;;;7.54;100.00;100790.06;6040754;23;20014;-93
2023/01/01 06:30:04;;;;;;;0.00;0.00;;;;;;;7.57;100.00;100795.56;6040057;23;20062;-94
2023/01/01 06:32:29;;;;;;;1.38;1.30;;;;;;;7.47;100.00;100779.84;6063688;23;20019;-95
2023/01/01 06:34:55;;;;;;;1.98;1.10;;;;;;;7.41;100.00;100778.66;6017317;23;20340;-93
2023/01/01 06:37:20;;;;;;;0.63;0.30;;;;;;;7.56;100.00;100794.00;6040660;23;20356;-95
2023/01/01 06:39:46;;;;;;;0.00;0.00;;;;;;;7.45;100.00;100780.22;5992479;23;20006;-94
2023/01/01 06:42:12;;;;;;;1.35;0.65;;;;;;;7.46;100.00;100784.56;6039884;23;20319;-94
2023/01/01 06:44:38;;;;;;;0.52;0.40;;;;;;;7.42;100.00;100789.31;5994353;23;20433;-93
2023/01/01 06:47:04;;;;;;;0.52;0.52;;;;;;;7.61;100.00;100820.41;6040383;23;20010;-94
2023/01/01 06:49:30;;;;;;;0.60;0.60;;;;;;;7.48;100.00;100798.75;5994369;23;20050;-96
2023/01/01 06:51:55;;;;;;;0.00;0.00;;;;;;;7.57;100.00;100805.81;6017340;23;20010;-95
2023/01/01 06:54:21;;;;;;;0.00;0.00;;;;;;;7.49;100.00;100783.75;6017482;23;20011;-95
2023/01/01 06:56:46;;;;;;;0.00;0.00;;;;;;;7.60;100.00;100794.78;6041502;23;20054;-95
2023/01/01 06:59:12;;;;;;;0.40;0.40;;;;;;;7.67;100.00;100796.75;6017570;23;20094;-96
2023/01/01 07:01:39;;;;;;;0.55;0.55;;;;;;;7.71;100.00;100800.28;6040977;23;20086;-93
2023/01/01 07:04:11;;;;;;;1.45;1.35;;;;;;;7.76;100.00;100800.66;6018065;23;20011;-95
2023/01/01 07:06:37;;;;;;;0.00;0.00;;;;;;;7.79;100.00;100810.91;6041485;23;20162;-93
2023/01/01 07:09:04;;;;;;;0.75;0.75;;;;;;;8.00;100.00;100818.34;6041582;23;20006;-95
2023/01/01 07:11:30;;;;;;;0.38;0.38;;;;;;;7.98;100.00;100798.59;6018295;23;20014;-94
2023/01/01 07:13:56;;;;;;;1.65;1.23;;;;;;;8.01;100.00;100791.50;6042230;23;20034;-95
2023/01/01 07:16:22;;;;;;;0.00;0.00;;;;;;;8.17;100.00;100800.88;6017938;23;20010;-95
2023/01/01 07:18:49;;;;;;;2.08;0.88;;;;;;;8.34;100.00;100808.31;5993937;23;20014;-94
2023/01/01 07:21:31;;;;;;;0.30;0.30;;;;;;;8.47;100.00;100814.19;5993466;23;20090;-95
2023/01/01 07:24:00;;;;;;;0.30;0.30;;;;;;;8.38;100.00;100778.69;6040907;23;20023;-96
2023/01/01 07:26:29;;;;;;;0.13;0.13;;;;;;;8.68;100.00;100807.72;5994927;23;20053;-94
2023/01/01 07:28:55;;;;;;;0.17;0.17;;;;;;;8.68;100.00;100797.47;5993374;23;20011;-94
2023/01/01 07:31:21;;;;;;;0.20;0.20;;;;;;;8.80;100.00;100801.72;5993543;23;20346;-95
2023/01/01 07:33:46;;;;;;;0.03;0.03;;;;;;;8.96;100.00;100807.53;6017276;23;20003;-92
2023/01/01 07:36:12;;;;;;;0.13;0.13;;;;;;;9.05;100.00;100807.84;5993205;23;20445;-94
2023/01/01 07:38:37;;;;;;;1.13;0.63;;;;;;;9.00;100.00;100796.44;6040107;23;20397;-95
2023/01/01 07:41:03;;;;;;;0.63;0.43;;;;;;;9.23;100.00;100814.00;6040086;23;20007;-94
2023/01/01 07:43:29;;;;;;;0.13;0.10;;;;;;;9.30;100.00;100808.41;6041254;23;20019;-94
2023/01/01 07:45:54;;;;;;;1.17;0.73;;;;;;;9.46;100.00;100813.41;5993207;23;20465;-92
2023/01/01 07:48:20;;;;;;;0.00;0.00;;;;;;;9.54;100.00;100814.94;6016895;23;20103;-94
2023/01/01 07:50:45;;;;;;;0.38;0.25;;;;;;;9.54;100.00;100794.75;6040195;23;20011;-94
2023/01/01 07:53:11;;;;;;;0.10;0.10;;;;;;;9.68;100.00;100808.44;5992793;23;20336;-95
2023/01/01 07:55:37;;;;;;;0.32;0.32;;;;;;;9.76;100.00;100813.50;6016202;23;20015;-96
2023/01/01 07:58:02;;;;;;;0.50;0.50;;;;;;;9.89;100.00;100808.19;5992909;23;20007;-94
2023/01/01 08:00:29;;;;;;;0.35;0.35;;;;;;;9.83;100.00;100809.84;6018884;23;20045;-95
2023/01/01 08:02:54;;;;;;;0.05;0.05;;;;;;;9.80;100.00;100816.22;5989851;23;20023;-94
2023/01/01 08:05:20;;;;;;;0.40;0.40;;;;;;;9.64;100.00;100802.16;6016759;23;20011;-95
2023/01/01 08:07:47;;;;;;;1.52;1.00;;;;;;;9.75;100.00;100808.34;6014254;23;20018;-94
2023/01/01 08:10:12;;;;;;;0.15;0.13;;;;;;;9.74;100.00;100815.91;6015105;23;20017;-93
2023/01/01 08:12:38;;;;;;;1.95;1.52;;;;;;;9.76;100.00;100821.00;6014815;23;20090;-94
2023/01/01 08:15:04;;;;;;;0.93;0.68;;;;;;;9.78;100.00;100818.63;6038004;23;20349;-93
2023/01/01 08:17:30;;;;;;;1.42;1.27;;;;;;;9.87;100.00;100816.13;6014369;23;20019;-93
2023/01/01 08:19:56;;;;;;;0.05;0.05;;;;;;;10.09;100.00;100842.41;6014159;23;20019;-93
2023/01/01 08:22:22;;;;;;;2.45;0.52;;;;;;;10.05;100.00;100821.47;6038936;23;20011;-93
2023/01/01 08:24:47;;;;;;;1.13;1.08;;;;;;;10.09;100.00;100825.78;6015002;23;20007;-92
2023/01/01 08:27:14;;;;;;;0.68;0.68;;;;;;;10.31;100.00;100840.19;6037468;23;20034;-92
2023/01/01 08:29:40;;;;;;;0.03;0.03;;;;;;;10.34;100.00;100833.03;6014488;23;20016;-92
2023/01/01 08:32:06;;;;;;;1.02;0.75;;;;;;;10.37;100.00;100826.63;6038075;23;20031;-93
2023/01/01 08:34:32;;;;;;;0.05;0.05;;;;;;;10.54;100.00;100843.06;6060945;23;20015;-93
2023/01/01 08:36:58;;;;;;;2.03;1.25;;;;;;;10.51;100.00;100816.16;6038571;23;20022;-93
2023/01/01 08:39:24;;;;;;;0.10;0.10;;;;;;;10.67;100.00;100834.97;6041288;23;20008;-93
2023/01/01 08:41:50;;;;;;;0.00;0.00;;;;;;;10.89;100.00;100858.41;6039578;23;20012;-94
2023/01/01 08:44:15;;;;;;;1.65;0.65;;;;;;;10.88;100.00;100836.63;6037892;23;20070;-93
2023/01/01 08:46:41;;;;;;;2.70;1.38;;;;;;;10.89;100.00;100835.41;6014178;23;20016;-92
2023/01/01 08:49:06;;;;;;;0.50;0.43;;;;;;;11.09;100.00;100856.50;6037314;23;20014;-93
2023/01/01 08:51:32;;;;;;;0.43;0.43;;;;;;;11.21;100.00;100863.44;6013775;23;20450;-92
2023/01/01 08:53:58;;;;;;;0.47;0.47;;;;;;;11.36;100.00;100875.13;6038176;23;20022;-92
2023/01/01 08:56:23;;;;;;;0.30;0.30;;;;;;;11.25;100.00;100853.06;6036595;23;20019;-93
2023/01/01 08:58:49;;;;;;;0.08;0.08;;;;;;;11.23;100.00;100839.63;6036478;23;20015;-93
2023/01/01 09:01:15;;;;;;;0.52;0.52;;;;;;;11.53;100.00;100891.47;6036803;23;20026;-92
2023/01/01 09:03:41;;;;;;;0.20;0.20;;;;;;;11.31;100.00;100850.59;6037107;23;20320;-91
2023/01/01 09:06:07;;;;;;;0.52;0.52;;;;;;;11.30;100.00;100844.25;6013399;23;20513;-95
2023/01/01 09:08:33;;;;;;;0.20;0.20;;;;;;;11.45;100.00;100872.56;6037157;23;20011;-92
2023/01/01 09:11:00;;;;;;;0.22;0.22;;;;;;;11.47;100.00;100870.97;6012911;23;20034;-93
2023/01/01 09:13:26;;;;;;;1.55;0.80;;;;;;;11.51;100.00;100876.47;6013678;23;20055;-94
2023/01/01 09:15:52;;;;;;;0.43;0.43;;;;;;;11.49;100.00;100864.97;6037654;23;20107;-94
2023/01/01 09:18:17;;;;;;;0.50;0.35;;;;;;;11.40;100.00;100853.63;6037165;23;20102;-94
2023/01/01 09:20:43;;;;;;;1.27;1.17;;;;;;;11.49;100.00;100859.41;6037670;23;20039;-94
2023/01/01 09:23:10;;;;;;;0.57;0.57;;;;;;;11.41;100.00;100846.84;6037639;23;20349;-94
2023/01/01 09:25:36;;;;;;;0.43;0.43;;;;;;;11.63;100.00;100884.97;6013311;23;20477;-94
2023/01/01 09:28:04;;;;;;;0.22;0.22;;;;;;;11.57;100.00;100860.84;6013487;23;20015;-94
2023/01/01 09:30:30;;;;;;;0.82;0.28;;;;;;;11.73;100.00;100877.66;6037544;23;20070;-94
2023/01/01 09:32:55;;;;;;;0.73;0.47;;;;;;;11.79;100.00;100880.75;6037720;23;20023;-92
2023/01/01 09:35:21;;;;;;;2.60;0.95;;;;;;;11.66;100.00;100844.44;6013477;23;20394;-95
2023/01/01 09:37:47;;;;;;;4.57;0.45;;;;;;;11.93;100.00;100870.16;6014407;23;20442;-93
2023/01/01 09:40:27;;;;;;;1.00;0.73;;;;;;;12.22;100.00;100864.03;6039647;23;20055;-93
2023/01/01 09:43:31;;;;;;;0.45;0.45;;;;;;;12.21;100.00;100841.00;6038944;23;20023;-94
2023/01/01 09:46:05;;;;;;;0.00;0.00;;;;;;;12.47;100.00;100858.75;6017587;23;20007;-93
2023/01/01 09:48:55;;;;;;;2.35;0.93;;;;;;;12.47;100.00;100820.56;6016477;23;20026;-95
2023/01/01 09:51:35;;;;;;;0.43;0.43;;;;;;;12.70;100.00;100838.38;6022767;23;20107;-95
2023/01/01 09:54:09;;;;;;;0.52;0.45;;;;;;;12.64;100.00;100821.41;6042719;23;20023;-94
2023/01/01 09:56:39;;;;;;;0.43;0.43;;;;;;;12.97;100.00;100841.72;6040478;23;20047;-94
2023/01/01 09:59:09;;;;;;;0.38;0.38;;;;;;;12.98;100.00;100813.41;6038464;23;20017;-93
2023/01/01 10:02:16;;;;;;;0.70;0.47;;;;;;;13.38;100.00;100846.72;6062472;23;20024;-94
2023/01/01 10:05:21;;;;;;;0.35;0.30;;;;;;;13.55;100.00;100837.09;5978488;23;20020;-94
2023/01/01 10:08:05;;;;;;;0.20;0.20;;;;;;;13.82;100.00;100828.41;5956130;24;20016;-94
2023/01/01 10:10:48;;;;;;;0.70;0.70;;;;;;;13.85;100.00;100806.00;6029855;23;20049;-94
2023/01/01 10:13:35;;;;;;;0.50;0.50;;;;;;;14.08;100.00;100821.69;6039786;23;20093;-93
2023/01/01 10:16:08;;;;;;;0.40;0.40;;;;;;;14.01;100.00;100803.16;6016516;23;20022;-94
2023/01/01 10:18:37;;;;;;;0.10;0.10;;;;;;;14.36;100.00;100808.94;6040513;23;20157;-95
2023/01/01 10:21:24;;;;;;;0.10;0.10;;;;;;;14.47;100.00;100789.88;6063223;23;20007;-94
2023/01/01 10:24:10;;;;;;;0.55;0.55;;;;;;;14.67;100.00;100801.63;6014958;23;20433;-94
2023/01/01 10:26:36;;;;;;;3.60;1.25;;;;;;;14.78;100.00;100782.50;6062356;23;20019;-94
2023/01/01 10:29:10;;;;;;;0.90;0.43;;;;;;;14.92;100.00;100796.00;6038570;23;20018;-94
2023/01/01 10:31:39;;;;;;;0.35;0.30;;;;;;;14.85;100.00;100782.28;6063313;23;20014;-93
2023/01/01 10:34:18;;;;;;;2.72;0.60;;;;;;;15.06;100.00;100782.81;6039485;23;20078;-95
2023/01/01 10:36:44;;;;;;;0.57;0.35;;;;;;;15.20;100.00;100785.94;6041074;23;20022;-96
2023/01/01 10:39:14;;;;;;;0.10;0.10;;;;;;;15.39;100.00;100781.28;6016767;23;20053;-95
2023/01/01 10:41:39;;;;;;;0.40;0.40;;;;;;;15.48;100.00;100778.56;6040373;23;20019;-95
2023/01/01 10:44:06;;;;;;;0.60;0.60;;;;;;;15.46;100.00;100749.50;6016584;23;20017;-94
2023/01/01 10:46:34;;;;;;;0.05;0.05;;;;;;;15.73;100.00;100778.47;6017433;23;20011;-96
2023/01/01 10:49:04;;;;;;;0.65;0.60;;;;;;;15.69;100.00;100780.63;6041358;23;20030;-95
2023/01/01 10:51:30;;;;;;;0.15;0.15;;;;;;;15.54;100.00;100762.78;6041439;23;20049;-94
2023/01/01 10:53:55;;;;;;;0.80;0.68;;;;;;;15.65;100.00;100788.34;6017618;23;20011;-93
2023/01/01 10:56:22;;;;;;;0.10;0.05;;;;;;;15.59;100.00;100772.63;6040453;23;20011;-95
2023/01/01 10:58:57;;;;;;;0.25;0.25;;;;;;;15.70;100.00;100765.41;6041833;23;20007;-95
2023/01/01 11:01:30;;;;;;;0.40;0.40;;;;;;;15.76;100.00;100752.41;6017278;23;20023;-95
2023/01/01 11:04:14;;;;;;;;;;;;;;;15.89;100.00;100773.94;5994868;23;20446;-94
2023/01/01 11:06:41;;;;;;;0.73;0.43;;;;;;;16.02;100.00;100778.22;6042014;23;20340;-95
2023/01/01 11:09:25;;;;;;;0.50;0.50;;;;;;;16.06;100.00;100755.69;6037464;23;20086;-96
2023/01/01 11:12:05;;;;;;;0.80;0.20;;;;;;;16.25;100.00;100782.56;6062942;23;20082;-93
2023/01/01 11:14:39;;;;;;;1.10;0.43;;;;;;;16.32;100.00;100780.28;6039059;23;20402;-96
2023/01/01 11:17:06;;;;;;;0.00;0.00;;;;;;;16.13;100.00;100755.44;6038258;23;20090;-95
2023/01/01 11:19:36;;;;;;;0.45;0.45;;;;;;;16.33;99.48;100781.06;6014738;23;20381;-93
2023/01/01 11:22:05;;;;;;;1.02;1.02;;;;;;;16.28;100.00;100745.25;6037724;23;20019;-94
2023/01/01 11:24:33;;;;;;;0.22;0.22;;;;;;;16.47;100.00;100774.91;6013656;23;20086;-94
2023/01/01 11:27:19;;;;;;;0.43;0.30;;;;;;;16.55;100.00;100764.97;6036215;23;20154;-94
2023/01/01 11:29:44;;;;;;;0.10;0.10;;;;;;;16.46;97.63;100747.38;6038012;23;20742;-95
2023/01/01 11:32:37;;;;;;;0.20;0.17;;;;;;;16.58;97.17;100758.47;6037473;23;20027;-94
2023/01/01 11:35:05;;;;;;;0.22;0.22;;;;;;;16.58;98.51;100752.88;6013646;23;20015;-94
2023/01/01 11:37:32;;;;;;;0.75;0.73;;;;;;;16.90;98.38;100767.63;6038373;23;20015;-94
2023/01/01 11:39:59;;;;;;;0.08;0.08;;;;;;;16.88;96.44;100748.47;6014715;23;19999;-93
2023/01/01 11:42:27;;;;;;;0.10;0.10;;;;;;;16.95;94.13;100759.38;6037995;23;20019;-94